OPA Logo
 
ASOS:
At:2022.01.18 1315 UTC
Wind:Variable @ 3KT
Viz: 10 mile(s)
Sky: clear
Temp: 28 F (-2 C)
DewP: 26 F (-3 C)
RH: 92%
Baro: 30.06 in.
ob: KBDN 181315Z AUTO VRB03KT 10SM CLR M02/M03 A3006 RMK AO2

ASOS: KRDM
At:2022.01.18 1256 UTC
Wind:Variable @ 3KT
Viz: 10 mile(s)
Sky: clear
Temp: 27.0 F (-2.8 C)
DewP: 21.9 F (-5.6 C)
RH: 81%
Baro: 30.05 in.
ob: KRDM 181256Z AUTO VRB03KT 10SM CLR M03/M06 A3005 RMK AO2 SLP191 I1000 T10281056
Apache-SSL Logo

Valid HTML 4.01!

Local FAA Notices



15 May 2002 - FAA APPROVES 4 new antennas near St. Charles Hospital


2 May 2002, FAA Northwest Mountain Region Letter to Airmen 02-01

VFR Practice Approaches: Page 1, Page 2, Page 3, Page 4.


11 Apr 2002 - FAA Public Notice, 4 new antennas near St. Charles Hospital



Web page by: gem@rellim.com